Time,TemperatureF,DewpointF,PressureIn,WindDirection,WindDirectionDegrees,WindSpeedMPH,WindSpeedGustMPH,Humidity,HourlyPrecipIn,Conditions,Clouds,dailyrainin,SoftwareType,DateUTC
2013-01-19 00:14:00,18.0,16.0,29.81,NW,319,3.0,-999.0,93,-99.99,,,0.00,weatherlink.com 1.10,2013-01-19 05:14:00,
2013-01-19 00:29:00,18.1,16.0,29.81,NW,318,4.0,-999.0,93,-99.99,,,0.00,weatherlink.com 1.10,2013-01-19 05:29:00,
2013-01-19 00:44:00,18.1,16.0,29.81,NW,317,0.0,-999.0,93,-99.99,,,0.00,weatherlink.com 1.10,2013-01-19 05:44:00,
2013-01-19 00:59:00,18.3,17.0,29.80,NW,317,0.0,-999.0,93,-99.99,,,0.00,weatherlink.com 1.10,2013-01-19 05:59:00,
2013-01-19 01:14:00,18.3,17.0,29.80,NW,317,0.0,-999.0,93,-99.99,,,0.00,weatherlink.com 1.10,2013-01-19 06:14:00,
2013-01-19 01:29:00,18.4,17.0,29.80,NW,317,0.0,-999.0,93,-99.99,,,0.00,weatherlink.com 1.10,2013-01-19 06:29:00,
2013-01-19 01:44:00,18.4,17.0,29.80,NW,317,0.0,-999.0,93,-99.99,,,0.00,weatherlink.com 1.10,2013-01-19 06:44:00,
2013-01-19 01:59:00,18.3,17.0,29.81,NW,317,0.0,-999.0,93,-99.99,,,0.00,weatherlink.com 1.10,2013-01-19 06:59:00,
2013-01-19 02:14:00,18.4,17.0,29.81,NW,317,0.0,-999.0,93,-99.99,,,0.00,weatherlink.com 1.10,2013-01-19 07:14:00,
2013-01-19 02:29:00,18.5,17.0,29.82,NW,317,0.0,-999.0,93,-99.99,,,0.00,weatherlink.com 1.10,2013-01-19 07:29:00,
2013-01-19 02:44:00,18.6,17.0,29.82,NW,317,0.0,-999.0,93,-99.99,,,0.00,weatherlink.com 1.10,2013-01-19 07:44:00,
2013-01-19 03:15:00,18.3,17.0,29.83,NW,316,0.0,-999.0,93,-99.99,,,0.00,weatherlink.com 1.10,2013-01-19 08:15:00,
2013-01-19 03:30:00,18.6,17.0,29.83,WNW,299,0.0,-999.0,94,-99.99,,,0.00,weatherlink.com 1.10,2013-01-19 08:30:00,
2013-01-19 03:45:00,18.7,17.0,29.83,WNW,299,0.0,-999.0,93,-99.99,,,0.00,weatherlink.com 1.10,2013-01-19 08:45:00,
2013-01-19 04:00:00,18.7,17.0,29.83,WNW,299,0.0,-999.0,93,-99.99,,,0.00,weatherlink.com 1.10,2013-01-19 09:00:00,
2013-01-19 04:15:00,18.9,19.0,29.83,WNW,299,0.0,-999.0,100,-99.99,,,0.00,weatherlink.com 1.10,2013-01-19 09:15:00,
2013-01-19 04:30:00,19.1,18.0,29.84,WNW,299,0.0,-999.0,94,-99.99,,,0.00,weatherlink.com 1.10,2013-01-19 09:30:00,
2013-01-19 04:45:00,19.3,18.0,29.84,WNW,299,0.0,-999.0,94,-99.99,,,0.00,weatherlink.com 1.10,2013-01-19 09:45:00,
2013-01-19 05:00:00,19.5,18.0,29.83,WNW,299,0.0,-999.0,94,-99.99,,,0.00,weatherlink.com 1.10,2013-01-19 10:00:00,
2013-01-19 05:15:00,19.5,18.0,29.82,WNW,299,0.0,-999.0,94,-99.99,,,0.00,weatherlink.com 1.10,2013-01-19 10:15:00,
2013-01-19 05:30:00,19.5,18.0,29.84,WNW,298,0.0,-999.0,94,-99.99,,,0.00,weatherlink.com 1.10,2013-01-19 10:30:00,
2013-01-19 05:45:00,19.5,18.0,29.85,SW,234,3.0,-999.0,93,-99.99,,,0.00,weatherlink.com 1.10,2013-01-19 10:45:00,
2013-01-19 06:01:00,19.3,18.0,29.84,SW,226,4.0,-999.0,93,-99.99,,,0.00,weatherlink.com 1.10,2013-01-19 11:01:00,
2013-01-19 08:01:00,18.0,16.0,29.82,SSW,213,0.0,-999.0,93,-99.99,,,0.00,weatherlink.com 1.10,2013-01-19 13:01:00,
2013-01-19 08:16:00,18.1,16.0,29.81,SSW,213,0.0,-999.0,93,-99.99,,,0.00,weatherlink.com 1.10,2013-01-19 13:16:00,
2013-01-19 08:31:00,18.1,16.0,29.81,SSW,213,0.0,-999.0,93,-99.99,,,0.00,weatherlink.com 1.10,2013-01-19 13:31:00,
2013-01-19 08:46:00,18.2,17.0,29.80,SSW,211,0.0,-999.0,93,-99.99,,,0.00,weatherlink.com 1.10,2013-01-19 13:46:00,
2013-01-19 09:02:00,18.2,17.0,29.80,South,186,0.0,-999.0,93,-99.99,,,0.00,weatherlink.com 1.10,2013-01-19 14:02:00,
2013-01-19 09:17:00,18.3,17.0,29.79,South,179,0.0,-999.0,93,-99.99,,,0.00,weatherlink.com 1.10,2013-01-19 14:17:00,
2013-01-19 09:32:00,18.4,17.0,29.79,SSE,168,1.0,-999.0,93,-99.99,,,0.00,weatherlink.com 1.10,2013-01-19 14:32:00,
2013-01-19 09:47:00,18.6,17.0,29.79,SSE,167,0.0,-999.0,93,-99.99,,,0.00,weatherlink.com 1.10,2013-01-19 14:47:00,
2013-01-19 10:02:00,19.1,17.0,29.77,South,171,2.0,-999.0,93,-99.99,,,0.00,weatherlink.com 1.10,2013-01-19 15:02:00,
2013-01-19 10:17:00,19.6,18.0,29.78,South,178,7.0,-999.0,93,-99.99,,,0.00,weatherlink.com 1.10,2013-01-19 15:17:00,
2013-01-19 10:32:00,20.0,18.0,29.77,South,190,0.0,-999.0,93,-99.99,,,0.00,weatherlink.com 1.10,2013-01-19 15:32:00,
2013-01-19 10:47:00,20.2,19.0,29.75,SSW,197,5.0,-999.0,93,-99.99,,,0.00,weatherlink.com 1.10,2013-01-19 15:47:00,
2013-01-19 11:02:00,20.5,19.0,29.74,South,170,6.0,-999.0,93,-99.99,,,0.00,weatherlink.com 1.10,2013-01-19 16:02:00,
2013-01-19 11:17:00,20.6,19.0,29.73,South,182,5.0,-999.0,92,-99.99,,,0.00,weatherlink.com 1.10,2013-01-19 16:17:00,
2013-01-19 11:32:00,20.6,19.0,29.72,South,178,7.0,-999.0,92,-99.99,,,0.00,weatherlink.com 1.10,2013-01-19 16:32:00,
2013-01-19 11:48:00,20.7,19.0,29.73,SSW,213,4.0,-999.0,92,-99.99,,,0.00,weatherlink.com 1.10,2013-01-19 16:48:00,
2013-01-19 12:03:00,21.0,19.0,29.73,SW,232,4.0,-999.0,93,-99.99,,,0.00,weatherlink.com 1.10,2013-01-19 17:03:00,
2013-01-19 12:33:00,21.1,19.0,29.71,SSW,200,4.0,-999.0,92,-99.99,,,0.00,weatherlink.com 1.10,2013-01-19 17:33:00,
2013-01-19 12:48:00,21.4,20.0,29.68,South,183,3.0,-999.0,92,-99.99,,,0.00,weatherlink.com 1.10,2013-01-19 17:48:00,
2013-01-19 13:03:00,22.0,20.0,29.66,South,179,7.0,-999.0,93,-99.99,,,0.00,weatherlink.com 1.10,2013-01-19 18:03:00,
2013-01-19 13:18:00,22.2,20.0,29.65,SSE,166,8.0,-999.0,92,-99.99,,,0.00,weatherlink.com 1.10,2013-01-19 18:18:00,
2013-01-19 13:33:00,22.3,20.0,29.62,South,169,6.0,-999.0,92,-99.99,,,0.00,weatherlink.com 1.10,2013-01-19 18:33:00,
2013-01-19 13:48:00,22.8,21.0,29.61,South,188,4.0,-999.0,93,-99.99,,,0.00,weatherlink.com 1.10,2013-01-19 18:48:00,
2013-01-19 14:04:00,23.7,22.0,29.60,South,184,8.0,-999.0,93,-99.99,,,0.00,weatherlink.com 1.10,2013-01-19 19:04:00,
2013-01-19 14:19:00,24.6,23.0,29.58,South,170,5.0,-999.0,93,-99.99,,,0.00,weatherlink.com 1.10,2013-01-19 19:19:00,
2013-01-19 14:34:00,25.7,24.0,29.57,South,188,7.0,-999.0,93,-99.99,,,0.00,weatherlink.com 1.10,2013-01-19 19:34:00,
2013-01-19 14:49:00,25.9,24.0,29.56,SSW,205,9.0,-999.0,93,-99.99,,,0.00,weatherlink.com 1.10,2013-01-19 19:49:00,
2013-01-19 15:04:00,26.1,24.0,29.57,SSW,208,2.0,-999.0,93,-99.99,,,0.00,weatherlink.com 1.10,2013-01-19 20:04:00,
2013-01-19 15:34:00,26.5,25.0,29.54,SSW,196,1.0,-999.0,94,-99.99,,,0.00,weatherlink.com 1.10,2013-01-19 20:34:00,
2013-01-19 16:04:00,26.5,25.0,29.51,South,176,7.0,-999.0,94,-99.99,,,0.00,weatherlink.com 1.10,2013-01-19 21:04:00,
2013-01-19 16:20:00,26.5,25.0,29.49,South,185,3.0,-999.0,94,-99.99,,,0.00,weatherlink.com 1.10,2013-01-19 21:20:00,
2013-01-19 16:35:00,26.5,25.0,29.49,SSW,199,1.0,-999.0,94,-99.99,,,0.00,weatherlink.com 1.10,2013-01-19 21:35:00,
2013-01-19 17:05:00,26.6,25.0,29.48,SSW,206,4.0,-999.0,94,-99.99,,,0.00,weatherlink.com 1.10,2013-01-19 22:05:00,
2013-01-19 17:35:00,26.7,26.0,29.48,SSW,200,0.0,-999.0,95,-99.99,,,0.01,weatherlink.com 1.10,2013-01-19 22:35:00,
2013-01-19 17:50:00,26.9,26.0,29.47,SW,224,1.0,-999.0,95,-99.99,,,0.01,weatherlink.com 1.10,2013-01-19 22:50:00,
2013-01-19 18:05:00,27.2,26.0,29.47,SSW,206,6.0,-999.0,95,-99.99,,,0.01,weatherlink.com 1.10,2013-01-19 23:05:00,
2013-01-19 18:20:00,27.4,26.0,29.47,SSW,211,0.0,-999.0,95,-99.99,,,0.01,weatherlink.com 1.10,2013-01-19 23:20:00,
2013-01-19 18:35:00,27.5,26.0,29.47,SSW,213,0.0,-999.0,95,-99.99,,,0.02,weatherlink.com 1.10,2013-01-19 23:35:00,
2013-01-19 19:51:00,29.2,26.0,29.48,NW,325,10.0,-999.0,89,-99.99,,,0.02,weatherlink.com 1.10,2013-01-20 00:51:00,
2013-01-19 20:21:00,28.4,25.0,29.48,NW,320,20.0,-999.0,86,-99.99,,,0.02,weatherlink.com 1.10,2013-01-20 01:21:00,
2013-01-19 20:51:00,25.4,22.0,29.50,WNW,302,15.0,-999.0,85,-99.99,,,0.02,weatherlink.com 1.10,2013-01-20 01:51:00,
2013-01-19 21:23:00,22.8,18.0,29.52,WNW,283,13.0,-999.0,82,-99.99,,,0.02,weatherlink.com 1.10,2013-01-20 02:23:00,
2013-01-19 22:07:00,19.0,16.0,29.55,WNW,302,16.0,-999.0,86,-99.99,,,0.02,weatherlink.com 1.10,2013-01-20 03:07:00,
2013-01-19 22:22:00,18.3,15.0,29.55,NW,304,18.0,-999.0,87,-99.99,,,0.02,weatherlink.com 1.10,2013-01-20 03:22:00,
2013-01-19 22:37:00,17.6,15.0,29.57,NNW,327,22.0,-999.0,88,-99.99,,,0.02,weatherlink.com 1.10,2013-01-20 03:37:00,
2013-01-19 22:52:00,16.7,14.0,29.59,NW,313,16.0,-999.0,88,-99.99,,,0.02,weatherlink.com 1.10,2013-01-20 03:52:00,
2013-01-19 23:07:00,16.2,13.0,29.61,NW,314,14.0,-999.0,88,-99.99,,,0.02,weatherlink.com 1.10,2013-01-20 04:07:00,
2013-01-19 23:22:00,15.6,13.0,29.63,NW,312,10.0,-999.0,88,-99.99,,,0.02,weatherlink.com 1.10,2013-01-20 04:22:00,
2013-01-19 23:37:00,14.9,12.0,29.63,NW,321,13.0,-999.0,88,-99.99,,,0.02,weatherlink.com 1.10,2013-01-20 04:37:00,
2013-01-19 23:52:00,14.3,12.0,29.65,WNW,285,14.0,-999.0,90,-99.99,,,0.02,weatherlink.com 1.10,2013-01-20 04:52:00,